sensor_id;sensor_type;location;lat;lon;timestamp;P1;durP1;ratioP1;P2;durP2;ratioP2
12114;SDS011;6121;49.810;6.418;2023-05-10T00:00:36;101.65;;;13.82;;
12114;SDS011;6121;49.810;6.418;2023-05-10T00:03:02;98.43;;;13.35;;
12114;SDS011;6121;49.810;6.418;2023-05-10T00:05:30;102.70;;;14.00;;
12114;SDS011;6121;49.810;6.418;2023-05-10T00:07:56;111.53;;;15.00;;
12114;SDS011;6121;49.810;6.418;2023-05-10T00:10:22;122.93;;;16.30;;
12114;SDS011;6121;49.810;6.418;2023-05-10T00:12:48;104.13;;;14.10;;
12114;SDS011;6121;49.810;6.418;2023-05-10T00:15:14;118.45;;;15.73;;
12114;SDS011;6121;49.810;6.418;2023-05-10T00:17:40;112.72;;;15.00;;
12114;SDS011;6121;49.810;6.418;2023-05-10T00:20:06;117.75;;;15.75;;
12114;SDS011;6121;49.810;6.418;2023-05-10T00:22:32;108.32;;;14.48;;
12114;SDS011;6121;49.810;6.418;2023-05-10T00:24:58;91.38;;;12.57;;
12114;SDS011;6121;49.810;6.418;2023-05-10T00:27:24;105.38;;;14.20;;
12114;SDS011;6121;49.810;6.418;2023-05-10T00:29:50;102.68;;;13.77;;
12114;SDS011;6121;49.810;6.418;2023-05-10T00:32:16;94.72;;;12.98;;
12114;SDS011;6121;49.810;6.418;2023-05-10T00:34:42;95.80;;;12.98;;
12114;SDS011;6121;49.810;6.418;2023-05-10T00:37:08;91.18;;;12.45;;
12114;SDS011;6121;49.810;6.418;2023-05-10T00:39:33;105.90;;;14.25;;
12114;SDS011;6121;49.810;6.418;2023-05-10T00:41:59;99.95;;;13.57;;
12114;SDS011;6121;49.810;6.418;2023-05-10T00:44:26;104.03;;;14.02;;
12114;SDS011;6121;49.810;6.418;2023-05-10T00:46:52;116.57;;;15.32;;
12114;SDS011;6121;49.810;6.418;2023-05-10T00:49:18;130.60;;;17.15;;
12114;SDS011;6121;49.810;6.418;2023-05-10T00:51:45;96.95;;;13.20;;
12114;SDS011;6121;49.810;6.418;2023-05-10T00:54:11;124.20;;;16.38;;
12114;SDS011;6121;49.810;6.418;2023-05-10T00:56:39;100.07;;;13.68;;
12114;SDS011;6121;49.810;6.418;2023-05-10T00:59:06;90.63;;;12.48;;
12114;SDS011;6121;49.810;6.418;2023-05-10T01:01:35;95.05;;;12.98;;
12114;SDS011;6121;49.810;6.418;2023-05-10T01:04:01;124.63;;;16.55;;
12114;SDS011;6121;49.810;6.418;2023-05-10T01:06:28;104.15;;;14.10;;
12114;SDS011;6121;49.810;6.418;2023-05-10T01:08:54;100.80;;;13.57;;
12114;SDS011;6121;49.810;6.418;2023-05-10T01:11:21;95.38;;;13.02;;
12114;SDS011;6121;49.810;6.418;2023-05-10T01:13:47;122.40;;;16.20;;
12114;SDS011;6121;49.810;6.418;2023-05-10T01:16:18;102.10;;;13.73;;
12114;SDS011;6121;49.810;6.418;2023-05-10T01:18:44;90.20;;;12.37;;
12114;SDS011;6121;49.810;6.418;2023-05-10T01:34:54;94.65;;;12.93;;
12114;SDS011;6121;49.810;6.418;2023-05-10T01:37:37;99.90;;;13.82;;
12114;SDS011;6121;49.810;6.418;2023-05-10T01:40:10;93.80;;;12.90;;
12114;SDS011;6121;49.810;6.418;2023-05-10T01:43:00;97.90;;;13.60;;
12114;SDS011;6121;49.810;6.418;2023-05-10T01:45:37;110.90;;;15.05;;
12114;SDS011;6121;49.810;6.418;2023-05-10T01:48:13;103.32;;;14.02;;
12114;SDS011;6121;49.810;6.418;2023-05-10T01:50:41;87.17;;;11.97;;
12114;SDS011;6121;49.810;6.418;2023-05-10T01:53:10;106.30;;;14.30;;
12114;SDS011;6121;49.810;6.418;2023-05-10T01:55:43;79.38;;;11.02;;
12114;SDS011;6121;49.810;6.418;2023-05-10T01:58:17;104.78;;;14.20;;
12114;SDS011;6121;49.810;6.418;2023-05-10T02:00:56;96.40;;;13.10;;
12114;SDS011;6121;49.810;6.418;2023-05-10T02:03:25;112.20;;;15.00;;
12114;SDS011;6121;49.810;6.418;2023-05-10T02:05:54;88.07;;;12.15;;
12114;SDS011;6121;49.810;6.418;2023-05-10T02:08:21;96.80;;;13.23;;
12114;SDS011;6121;49.810;6.418;2023-05-10T02:10:49;109.35;;;14.70;;
12114;SDS011;6121;49.810;6.418;2023-05-10T02:13:17;96.00;;;13.20;;
12114;SDS011;6121;49.810;6.418;2023-05-10T02:15:46;94.18;;;12.93;;
12114;SDS011;6121;49.810;6.418;2023-05-10T02:18:13;101.65;;;13.77;;
12114;SDS011;6121;49.810;6.418;2023-05-10T02:20:40;124.43;;;16.42;;
12114;SDS011;6121;49.810;6.418;2023-05-10T02:23:08;96.55;;;13.20;;
12114;SDS011;6121;49.810;6.418;2023-05-10T02:25:35;97.65;;;13.32;;
12114;SDS011;6121;49.810;6.418;2023-05-10T02:28:04;104.50;;;14.07;;
12114;SDS011;6121;49.810;6.418;2023-05-10T02:30:32;103.40;;;13.97;;
12114;SDS011;6121;49.810;6.418;2023-05-10T02:32:59;100.93;;;13.70;;
12114;SDS011;6121;49.810;6.418;2023-05-10T02:35:27;104.63;;;14.23;;
12114;SDS011;6121;49.810;6.418;2023-05-10T02:37:53;107.75;;;14.60;;
12114;SDS011;6121;49.810;6.418;2023-05-10T02:40:20;84.72;;;11.75;;
12114;SDS011;6121;49.810;6.418;2023-05-10T02:42:48;101.07;;;13.68;;
12114;SDS011;6121;49.810;6.418;2023-05-10T02:45:19;101.85;;;13.73;;
12114;SDS011;6121;49.810;6.418;2023-05-10T02:47:48;98.90;;;13.37;;
12114;SDS011;6121;49.810;6.418;2023-05-10T02:50:15;96.10;;;13.07;;
12114;SDS011;6121;49.810;6.418;2023-05-10T02:52:49;94.75;;;12.90;;
12114;SDS011;6121;49.810;6.418;2023-05-10T02:55:19;99.32;;;13.40;;
12114;SDS011;6121;49.810;6.418;2023-05-10T02:57:51;115.93;;;15.45;;
12114;SDS011;6121;49.810;6.418;2023-05-10T03:00:19;91.60;;;12.48;;
12114;SDS011;6121;49.810;6.418;2023-05-10T03:02:46;105.93;;;14.13;;
12114;SDS011;6121;49.810;6.418;2023-05-10T03:05:12;94.53;;;12.80;;
12114;SDS011;6121;49.810;6.418;2023-05-10T03:07:38;105.30;;;14.15;;
12114;SDS011;6121;49.810;6.418;2023-05-10T03:10:04;110.32;;;14.82;;
12114;SDS011;6121;49.810;6.418;2023-05-10T03:18:07;102.50;;;13.77;;
12114;SDS011;6121;49.810;6.418;2023-05-10T03:20:38;109.40;;;14.57;;
12114;SDS011;6121;49.810;6.418;2023-05-10T03:26:07;118.00;;;15.55;;
12114;SDS011;6121;49.810;6.418;2023-05-10T03:28:36;94.90;;;12.77;;
12114;SDS011;6121;49.810;6.418;2023-05-10T03:31:04;107.07;;;14.43;;
12114;SDS011;6121;49.810;6.418;2023-05-10T03:33:32;117.88;;;15.55;;
12114;SDS011;6121;49.810;6.418;2023-05-10T03:35:58;101.32;;;13.65;;
12114;SDS011;6121;49.810;6.418;2023-05-10T03:38:25;93.70;;;12.68;;
12114;SDS011;6121;49.810;6.418;2023-05-10T03:40:50;102.45;;;13.73;;
12114;SDS011;6121;49.810;6.418;2023-05-10T03:43:16;105.05;;;14.05;;
12114;SDS011;6121;49.810;6.418;2023-05-10T03:45:42;100.97;;;13.55;;
12114;SDS011;6121;49.810;6.418;2023-05-10T03:48:08;101.35;;;13.40;;
12114;SDS011;6121;49.810;6.418;2023-05-10T03:50:33;102.30;;;13.63;;
12114;SDS011;6121;49.810;6.418;2023-05-10T03:53:00;111.35;;;14.80;;
12114;SDS011;6121;49.810;6.418;2023-05-10T03:55:27;118.33;;;15.73;;
12114;SDS011;6121;49.810;6.418;2023-05-10T03:57:53;105.90;;;14.18;;
12114;SDS011;6121;49.810;6.418;2023-05-10T04:00:21;107.65;;;14.60;;
12114;SDS011;6121;49.810;6.418;2023-05-10T04:02:49;114.97;;;15.43;;
12114;SDS011;6121;49.810;6.418;2023-05-10T04:05:18;97.13;;;13.23;;
12114;SDS011;6121;49.810;6.418;2023-05-10T04:07:43;94.17;;;12.87;;
12114;SDS011;6121;49.810;6.418;2023-05-10T04:10:10;103.97;;;14.23;;
12114;SDS011;6121;49.810;6.418;2023-05-10T04:12:36;98.10;;;13.18;;
12114;SDS011;6121;49.810;6.418;2023-05-10T04:15:02;105.90;;;14.32;;
12114;SDS011;6121;49.810;6.418;2023-05-10T04:17:28;79.55;;;11.20;;
12114;SDS011;6121;49.810;6.418;2023-05-10T04:19:54;105.27;;;14.10;;
12114;SDS011;6121;49.810;6.418;2023-05-10T04:22:21;99.65;;;13.45;;
12114;SDS011;6121;49.810;6.418;2023-05-10T04:24:47;103.65;;;13.88;;
12114;SDS011;6121;49.810;6.418;2023-05-10T04:27:12;92.78;;;12.57;;
12114;SDS011;6121;49.810;6.418;2023-05-10T04:29:38;127.27;;;16.73;;
12114;SDS011;6121;49.810;6.418;2023-05-10T04:32:04;100.67;;;13.50;;
12114;SDS011;6121;49.810;6.418;2023-05-10T04:34:31;119.30;;;15.97;;
12114;SDS011;6121;49.810;6.418;2023-05-10T04:36:59;122.38;;;16.17;;
12114;SDS011;6121;49.810;6.418;2023-05-10T04:39:25;94.93;;;12.95;;
12114;SDS011;6121;49.810;6.418;2023-05-10T04:41:50;103.25;;;13.80;;
12114;SDS011;6121;49.810;6.418;2023-05-10T04:44:16;111.32;;;14.73;;
12114;SDS011;6121;49.810;6.418;2023-05-10T04:46:42;121.35;;;15.88;;
12114;SDS011;6121;49.810;6.418;2023-05-10T04:49:08;113.70;;;15.15;;
12114;SDS011;6121;49.810;6.418;2023-05-10T04:51:35;113.20;;;14.97;;
12114;SDS011;6121;49.810;6.418;2023-05-10T04:54:02;125.70;;;16.27;;
12114;SDS011;6121;49.810;6.418;2023-05-10T04:56:28;103.95;;;13.88;;
12114;SDS011;6121;49.810;6.418;2023-05-10T04:58:54;96.88;;;12.95;;
12114;SDS011;6121;49.810;6.418;2023-05-10T05:01:20;111.80;;;14.88;;
12114;SDS011;6121;49.810;6.418;2023-05-10T05:03:45;119.85;;;15.73;;
12114;SDS011;6121;49.810;6.418;2023-05-10T05:06:13;160.23;;;20.63;;
12114;SDS011;6121;49.810;6.418;2023-05-10T05:08:39;105.47;;;14.13;;
12114;SDS011;6121;49.810;6.418;2023-05-10T05:11:04;106.20;;;14.17;;
12114;SDS011;6121;49.810;6.418;2023-05-10T05:13:30;98.07;;;13.13;;
12114;SDS011;6121;49.810;6.418;2023-05-10T05:15:57;116.43;;;15.40;;
12114;SDS011;6121;49.810;6.418;2023-05-10T05:18:25;104.37;;;14.03;;
12114;SDS011;6121;49.810;6.418;2023-05-10T05:20:51;94.43;;;12.70;;
12114;SDS011;6121;49.810;6.418;2023-05-10T05:23:17;109.20;;;14.57;;
12114;SDS011;6121;49.810;6.418;2023-05-10T05:25:43;109.75;;;14.48;;
12114;SDS011;6121;49.810;6.418;2023-05-10T05:28:09;110.88;;;14.80;;
12114;SDS011;6121;49.810;6.418;2023-05-10T05:30:35;96.40;;;13.18;;
12114;SDS011;6121;49.810;6.418;2023-05-10T05:33:02;104.32;;;14.13;;
12114;SDS011;6121;49.810;6.418;2023-05-10T05:35:28;111.93;;;15.07;;
12114;SDS011;6121;49.810;6.418;2023-05-10T05:37:54;112.10;;;14.93;;
12114;SDS011;6121;49.810;6.418;2023-05-10T05:40:21;105.13;;;14.10;;
12114;SDS011;6121;49.810;6.418;2023-05-10T05:42:46;129.57;;;16.85;;
12114;SDS011;6121;49.810;6.418;2023-05-10T05:45:13;128.65;;;17.10;;
12114;SDS011;6121;49.810;6.418;2023-05-10T05:47:39;141.63;;;18.45;;
12114;SDS011;6121;49.810;6.418;2023-05-10T05:50:05;103.68;;;14.02;;
12114;SDS011;6121;49.810;6.418;2023-05-10T05:52:31;88.63;;;12.27;;
12114;SDS011;6121;49.810;6.418;2023-05-10T05:54:57;86.33;;;11.87;;
12114;SDS011;6121;49.810;6.418;2023-05-10T05:57:23;81.90;;;11.48;;
12114;SDS011;6121;49.810;6.418;2023-05-10T05:59:49;90.22;;;12.45;;
12114;SDS011;6121;49.810;6.418;2023-05-10T06:02:15;75.28;;;10.65;;
12114;SDS011;6121;49.810;6.418;2023-05-10T06:04:41;96.13;;;13.20;;
12114;SDS011;6121;49.810;6.418;2023-05-10T06:07:07;97.40;;;13.27;;
12114;SDS011;6121;49.810;6.418;2023-05-10T06:09:33;94.63;;;13.00;;
12114;SDS011;6121;49.810;6.418;2023-05-10T06:11:59;92.30;;;12.70;;
12114;SDS011;6121;49.810;6.418;2023-05-10T06:14:25;96.70;;;13.13;;
12114;SDS011;6121;49.810;6.418;2023-05-10T06:16:51;104.22;;;14.07;;
12114;SDS011;6121;49.810;6.418;2023-05-10T06:19:16;113.40;;;15.23;;
12114;SDS011;6121;49.810;6.418;2023-05-10T06:21:42;99.10;;;13.65;;
12114;SDS011;6121;49.810;6.418;2023-05-10T06:24:08;123.20;;;16.40;;
12114;SDS011;6121;49.810;6.418;2023-05-10T06:26:34;72.82;;;10.55;;
12114;SDS011;6121;49.810;6.418;2023-05-10T06:29:01;93.65;;;13.13;;
12114;SDS011;6121;49.810;6.418;2023-05-10T06:31:27;102.93;;;14.07;;
12114;SDS011;6121;49.810;6.418;2023-05-10T06:33:53;78.67;;;11.23;;
12114;SDS011;6121;49.810;6.418;2023-05-10T06:36:19;132.80;;;17.80;;
12114;SDS011;6121;49.810;6.418;2023-05-10T06:38:44;72.43;;;10.52;;
12114;SDS011;6121;49.810;6.418;2023-05-10T06:41:10;101.65;;;13.93;;
12114;SDS011;6121;49.810;6.418;2023-05-10T06:43:36;87.45;;;12.30;;
12114;SDS011;6121;49.810;6.418;2023-05-10T06:46:05;98.22;;;13.63;;
12114;SDS011;6121;49.810;6.418;2023-05-10T06:48:32;88.28;;;12.35;;
12114;SDS011;6121;49.810;6.418;2023-05-10T06:50:58;138.00;;;18.23;;
12114;SDS011;6121;49.810;6.418;2023-05-10T06:53:24;157.15;;;20.58;;
12114;SDS011;6121;49.810;6.418;2023-05-10T06:55:50;115.90;;;15.93;;
12114;SDS011;6121;49.810;6.418;2023-05-10T06:58:16;121.95;;;16.55;;
12114;SDS011;6121;49.810;6.418;2023-05-10T07:00:42;126.15;;;16.98;;
12114;SDS011;6121;49.810;6.418;2023-05-10T07:03:09;167.05;;;21.88;;
12114;SDS011;6121;49.810;6.418;2023-05-10T07:05:35;110.18;;;15.13;;
12114;SDS011;6121;49.810;6.418;2023-05-10T07:08:01;123.78;;;16.60;;
12114;SDS011;6121;49.810;6.418;2023-05-10T07:10:27;111.25;;;15.18;;
12114;SDS011;6121;49.810;6.418;2023-05-10T07:12:53;129.13;;;17.48;;
12114;SDS011;6121;49.810;6.418;2023-05-10T07:15:19;145.27;;;19.20;;
12114;SDS011;6121;49.810;6.418;2023-05-10T07:17:45;105.90;;;14.68;;
12114;SDS011;6121;49.810;6.418;2023-05-10T07:20:11;124.53;;;16.80;;
12114;SDS011;6121;49.810;6.418;2023-05-10T07:22:37;113.97;;;15.57;;
12114;SDS011;6121;49.810;6.418;2023-05-10T07:25:03;101.95;;;14.02;;
12114;SDS011;6121;49.810;6.418;2023-05-10T07:27:30;97.28;;;13.48;;
12114;SDS011;6121;49.810;6.418;2023-05-10T07:29:55;145.97;;;19.40;;
12114;SDS011;6121;49.810;6.418;2023-05-10T07:32:22;125.50;;;16.67;;
12114;SDS011;6121;49.810;6.418;2023-05-10T07:34:48;136.48;;;18.15;;
12114;SDS011;6121;49.810;6.418;2023-05-10T07:37:14;131.07;;;17.63;;
12114;SDS011;6121;49.810;6.418;2023-05-10T07:39:41;126.00;;;17.00;;
12114;SDS011;6121;49.810;6.418;2023-05-10T07:42:08;144.77;;;19.33;;
12114;SDS011;6121;49.810;6.418;2023-05-10T07:44:34;131.60;;;17.57;;
12114;SDS011;6121;49.810;6.418;2023-05-10T07:47:00;150.37;;;19.97;;
12114;SDS011;6121;49.810;6.418;2023-05-10T07:49:25;137.77;;;18.37;;
12114;SDS011;6121;49.810;6.418;2023-05-10T07:51:51;112.70;;;15.50;;
12114;SDS011;6121;49.810;6.418;2023-05-10T07:54:17;160.30;;;20.92;;
12114;SDS011;6121;49.810;6.418;2023-05-10T07:56:43;103.88;;;14.30;;
12114;SDS011;6121;49.810;6.418;2023-05-10T07:59:16;126.72;;;16.98;;
12114;SDS011;6121;49.810;6.418;2023-05-10T08:01:43;95.80;;;13.30;;
12114;SDS011;6121;49.810;6.418;2023-05-10T08:04:10;165.13;;;21.80;;
12114;SDS011;6121;49.810;6.418;2023-05-10T08:06:36;110.75;;;15.23;;
12114;SDS011;6121;49.810;6.418;2023-05-10T08:09:02;123.10;;;16.73;;
12114;SDS011;6121;49.810;6.418;2023-05-10T08:11:28;118.68;;;16.15;;
12114;SDS011;6121;49.810;6.418;2023-05-10T08:13:54;114.30;;;15.55;;
12114;SDS011;6121;49.810;6.418;2023-05-10T08:16:20;108.68;;;14.85;;
12114;SDS011;6121;49.810;6.418;2023-05-10T08:18:46;97.00;;;13.57;;
12114;SDS011;6121;49.810;6.418;2023-05-10T08:21:12;124.95;;;16.90;;
12114;SDS011;6121;49.810;6.418;2023-05-10T08:23:39;131.13;;;17.80;;
12114;SDS011;6121;49.810;6.418;2023-05-10T08:26:04;132.83;;;17.97;;
12114;SDS011;6121;49.810;6.418;2023-05-10T08:28:30;119.57;;;16.33;;
12114;SDS011;6121;49.810;6.418;2023-05-10T08:30:56;113.50;;;15.70;;
12114;SDS011;6121;49.810;6.418;2023-05-10T08:33:22;153.68;;;20.45;;
12114;SDS011;6121;49.810;6.418;2023-05-10T08:35:49;101.25;;;14.27;;
12114;SDS011;6121;49.810;6.418;2023-05-10T08:38:15;124.57;;;17.15;;
12114;SDS011;6121;49.810;6.418;2023-05-10T08:40:41;96.38;;;13.75;;
12114;SDS011;6121;49.810;6.418;2023-05-10T08:43:09;144.90;;;19.52;;
12114;SDS011;6121;49.810;6.418;2023-05-10T08:45:37;123.22;;;17.00;;
12114;SDS011;6121;49.810;6.418;2023-05-10T08:48:08;123.55;;;17.08;;
12114;SDS011;6121;49.810;6.418;2023-05-10T08:50:38;119.95;;;16.75;;
12114;SDS011;6121;49.810;6.418;2023-05-10T08:53:09;133.18;;;18.25;;
12114;SDS011;6121;49.810;6.418;2023-05-10T08:55:37;101.80;;;14.45;;
12114;SDS011;6121;49.810;6.418;2023-05-10T08:58:06;125.33;;;17.37;;
12114;SDS011;6121;49.810;6.418;2023-05-10T09:00:32;126.70;;;17.37;;
12114;SDS011;6121;49.810;6.418;2023-05-10T09:03:00;129.13;;;17.73;;
12114;SDS011;6121;49.810;6.418;2023-05-10T09:05:28;135.90;;;18.45;;
12114;SDS011;6121;49.810;6.418;2023-05-10T09:07:54;114.25;;;15.98;;
12114;SDS011;6121;49.810;6.418;2023-05-10T09:10:20;122.30;;;16.90;;
12114;SDS011;6121;49.810;6.418;2023-05-10T09:12:46;124.80;;;17.08;;
12114;SDS011;6121;49.810;6.418;2023-05-10T09:15:15;131.50;;;18.00;;
12114;SDS011;6121;49.810;6.418;2023-05-10T09:17:41;125.23;;;17.00;;
12114;SDS011;6121;49.810;6.418;2023-05-10T09:20:09;109.80;;;15.38;;
12114;SDS011;6121;49.810;6.418;2023-05-10T09:22:35;116.22;;;16.08;;
12114;SDS011;6121;49.810;6.418;2023-05-10T09:25:04;125.38;;;17.27;;
12114;SDS011;6121;49.810;6.418;2023-05-10T09:27:33;134.90;;;18.20;;
12114;SDS011;6121;49.810;6.418;2023-05-10T09:30:00;129.18;;;17.65;;
12114;SDS011;6121;49.810;6.418;2023-05-10T09:32:35;129.77;;;17.45;;
12114;SDS011;6121;49.810;6.418;2023-05-10T09:35:10;111.88;;;15.60;;
12114;SDS011;6121;49.810;6.418;2023-05-10T09:37:38;117.25;;;16.15;;
12114;SDS011;6121;49.810;6.418;2023-05-10T09:40:07;120.18;;;16.55;;
12114;SDS011;6121;49.810;6.418;2023-05-10T09:42:36;124.82;;;17.05;;
12114;SDS011;6121;49.810;6.418;2023-05-10T09:45:02;143.40;;;19.30;;
12114;SDS011;6121;49.810;6.418;2023-05-10T09:47:35;137.30;;;18.55;;
12114;SDS011;6121;49.810;6.418;2023-05-10T09:50:02;111.03;;;15.35;;
12114;SDS011;6121;49.810;6.418;2023-05-10T09:52:36;111.50;;;15.43;;
12114;SDS011;6121;49.810;6.418;2023-05-10T09:55:11;110.90;;;15.10;;
12114;SDS011;6121;49.810;6.418;2023-05-10T09:57:37;116.67;;;16.07;;
12114;SDS011;6121;49.810;6.418;2023-05-10T10:00:04;135.02;;;18.10;;
12114;SDS011;6121;49.810;6.418;2023-05-10T10:02:39;121.55;;;16.55;;
12114;SDS011;6121;49.810;6.418;2023-05-10T10:05:06;132.27;;;17.58;;
12114;SDS011;6121;49.810;6.418;2023-05-10T10:07:32;135.18;;;17.98;;
12114;SDS011;6121;49.810;6.418;2023-05-10T10:09:59;113.47;;;15.55;;
12114;SDS011;6121;49.810;6.418;2023-05-10T10:12:25;115.47;;;15.85;;
12114;SDS011;6121;49.810;6.418;2023-05-10T10:14:51;93.80;;;12.98;;
12114;SDS011;6121;49.810;6.418;2023-05-10T10:17:18;132.20;;;17.77;;
12114;SDS011;6121;49.810;6.418;2023-05-10T10:19:45;134.63;;;17.90;;
12114;SDS011;6121;49.810;6.418;2023-05-10T10:22:12;121.00;;;16.23;;
12114;SDS011;6121;49.810;6.418;2023-05-10T10:24:38;125.80;;;16.90;;
12114;SDS011;6121;49.810;6.418;2023-05-10T10:27:09;106.38;;;14.55;;
12114;SDS011;6121;49.810;6.418;2023-05-10T10:32:37;128.30;;;17.10;;
12114;SDS011;6121;49.810;6.418;2023-05-10T10:35:07;132.48;;;17.63;;
12114;SDS011;6121;49.810;6.418;2023-05-10T10:37:41;134.02;;;17.70;;
12114;SDS011;6121;49.810;6.418;2023-05-10T10:40:25;126.80;;;16.85;;
12114;SDS011;6121;49.810;6.418;2023-05-10T10:42:53;117.00;;;15.63;;
12114;SDS011;6121;49.810;6.418;2023-05-10T10:45:22;109.13;;;14.50;;
12114;SDS011;6121;49.810;6.418;2023-05-10T10:47:53;114.50;;;15.30;;
12114;SDS011;6121;49.810;6.418;2023-05-10T10:50:45;137.05;;;18.05;;
12114;SDS011;6121;49.810;6.418;2023-05-10T10:53:11;129.85;;;16.88;;
12114;SDS011;6121;49.810;6.418;2023-05-10T10:55:45;116.97;;;15.45;;
12114;SDS011;6121;49.810;6.418;2023-05-10T10:58:28;126.53;;;16.67;;
12114;SDS011;6121;49.810;6.418;2023-05-10T11:01:11;121.32;;;16.05;;
12114;SDS011;6121;49.810;6.418;2023-05-10T11:03:41;138.88;;;18.13;;
12114;SDS011;6121;49.810;6.418;2023-05-10T11:06:33;126.20;;;16.63;;
12114;SDS011;6121;49.810;6.418;2023-05-10T11:09:06;106.22;;;14.10;;
12114;SDS011;6121;49.810;6.418;2023-05-10T11:11:34;128.45;;;16.77;;
12114;SDS011;6121;49.810;6.418;2023-05-10T11:14:02;127.47;;;16.80;;
12114;SDS011;6121;49.810;6.418;2023-05-10T11:16:40;106.70;;;14.25;;
12114;SDS011;6121;49.810;6.418;2023-05-10T11:19:13;94.55;;;12.77;;
12114;SDS011;6121;49.810;6.418;2023-05-10T11:21:50;118.07;;;15.60;;
12114;SDS011;6121;49.810;6.418;2023-05-10T11:24:31;126.22;;;16.60;;
12114;SDS011;6121;49.810;6.418;2023-05-10T11:26:58;108.10;;;14.40;;
12114;SDS011;6121;49.810;6.418;2023-05-10T11:29:25;132.87;;;17.17;;
12114;SDS011;6121;49.810;6.418;2023-05-10T11:31:51;124.17;;;16.30;;
12114;SDS011;6121;49.810;6.418;2023-05-10T11:34:24;161.67;;;20.83;;
12114;SDS011;6121;49.810;6.418;2023-05-10T11:36:55;124.40;;;16.30;;
12114;SDS011;6121;49.810;6.418;2023-05-10T11:39:28;146.57;;;19.00;;
12114;SDS011;6121;49.810;6.418;2023-05-10T11:41:55;123.28;;;16.13;;
12114;SDS011;6121;49.810;6.418;2023-05-10T11:44:22;158.77;;;20.25;;
12114;SDS011;6121;49.810;6.418;2023-05-10T11:46:48;130.68;;;17.10;;
12114;SDS011;6121;49.810;6.418;2023-05-10T11:49:14;130.38;;;16.95;;
12114;SDS011;6121;49.810;6.418;2023-05-10T11:51:40;132.75;;;17.10;;
12114;SDS011;6121;49.810;6.418;2023-05-10T11:54:09;127.18;;;16.60;;
12114;SDS011;6121;49.810;6.418;2023-05-10T11:56:39;141.32;;;18.25;;
12114;SDS011;6121;49.810;6.418;2023-05-10T11:59:05;112.20;;;14.80;;
12114;SDS011;6121;49.810;6.418;2023-05-10T12:01:31;120.83;;;15.87;;
12114;SDS011;6121;49.810;6.418;2023-05-10T12:03:58;123.75;;;16.15;;
12114;SDS011;6121;49.810;6.418;2023-05-10T12:06:28;136.32;;;17.63;;
12114;SDS011;6121;49.810;6.418;2023-05-10T12:08:56;111.05;;;14.73;;
12114;SDS011;6121;49.810;6.418;2023-05-10T12:11:24;142.23;;;18.42;;
12114;SDS011;6121;49.810;6.418;2023-05-10T12:13:51;130.48;;;16.88;;
12114;SDS011;6121;49.810;6.418;2023-05-10T12:16:18;134.95;;;17.52;;
12114;SDS011;6121;49.810;6.418;2023-05-10T12:18:49;116.75;;;15.25;;
12114;SDS011;6121;49.810;6.418;2023-05-10T12:21:21;120.25;;;15.77;;
12114;SDS011;6121;49.810;6.418;2023-05-10T12:23:51;143.88;;;18.48;;
12114;SDS011;6121;49.810;6.418;2023-05-10T12:26:20;108.20;;;14.32;;
12114;SDS011;6121;49.810;6.418;2023-05-10T12:28:47;118.53;;;15.45;;
12114;SDS011;6121;49.810;6.418;2023-05-10T12:31:13;98.22;;;13.07;;
12114;SDS011;6121;49.810;6.418;2023-05-10T12:33:40;128.47;;;16.80;;
12114;SDS011;6121;49.810;6.418;2023-05-10T12:36:11;119.72;;;15.77;;
12114;SDS011;6121;49.810;6.418;2023-05-10T12:38:39;133.82;;;17.30;;
12114;SDS011;6121;49.810;6.418;2023-05-10T12:41:09;117.70;;;15.45;;
12114;SDS011;6121;49.810;6.418;2023-05-10T12:43:36;125.20;;;16.33;;
12114;SDS011;6121;49.810;6.418;2023-05-10T12:46:09;112.30;;;14.77;;
12114;SDS011;6121;49.810;6.418;2023-05-10T12:48:41;145.00;;;18.63;;
12114;SDS011;6121;49.810;6.418;2023-05-10T12:51:08;134.57;;;17.48;;
12114;SDS011;6121;49.810;6.418;2023-05-10T12:53:38;161.73;;;20.70;;
12114;SDS011;6121;49.810;6.418;2023-05-10T12:56:05;73.47;;;10.15;;
12114;SDS011;6121;49.810;6.418;2023-05-10T12:58:31;99.30;;;13.23;;
12114;SDS011;6121;49.810;6.418;2023-05-10T13:00:57;77.00;;;10.55;;
12114;SDS011;6121;49.810;6.418;2023-05-10T13:03:24;95.63;;;12.77;;
12114;SDS011;6121;49.810;6.418;2023-05-10T13:05:50;124.75;;;16.33;;
12114;SDS011;6121;49.810;6.418;2023-05-10T13:08:17;161.60;;;20.77;;
12114;SDS011;6121;49.810;6.418;2023-05-10T13:10:42;133.98;;;17.48;;
12114;SDS011;6121;49.810;6.418;2023-05-10T13:13:09;163.52;;;21.02;;
12114;SDS011;6121;49.810;6.418;2023-05-10T13:15:35;185.20;;;23.30;;
12114;SDS011;6121;49.810;6.418;2023-05-10T13:18:01;203.45;;;25.60;;
12114;SDS011;6121;49.810;6.418;2023-05-10T13:20:27;173.73;;;22.08;;
12114;SDS011;6121;49.810;6.418;2023-05-10T13:22:52;189.70;;;23.95;;
12114;SDS011;6121;49.810;6.418;2023-05-10T13:25:18;162.02;;;20.70;;
12114;SDS011;6121;49.810;6.418;2023-05-10T13:27:46;207.73;;;26.27;;
12114;SDS011;6121;49.810;6.418;2023-05-10T13:30:12;140.30;;;18.08;;
12114;SDS011;6121;49.810;6.418;2023-05-10T13:32:37;166.03;;;21.30;;
12114;SDS011;6121;49.810;6.418;2023-05-10T13:35:04;154.93;;;20.00;;
12114;SDS011;6121;49.810;6.418;2023-05-10T13:37:31;233.37;;;29.17;;
12114;SDS011;6121;49.810;6.418;2023-05-10T13:40:00;156.93;;;20.33;;
12114;SDS011;6121;49.810;6.418;2023-05-10T13:42:27;149.05;;;19.15;;
12114;SDS011;6121;49.810;6.418;2023-05-10T13:44:53;184.80;;;23.27;;
12114;SDS011;6121;49.810;6.418;2023-05-10T13:47:19;198.00;;;24.90;;
12114;SDS011;6121;49.810;6.418;2023-05-10T13:49:46;183.13;;;23.10;;
12114;SDS011;6121;49.810;6.418;2023-05-10T13:52:12;146.52;;;18.80;;
12114;SDS011;6121;49.810;6.418;2023-05-10T13:54:39;196.47;;;24.90;;
12114;SDS011;6121;49.810;6.418;2023-05-10T13:57:05;167.07;;;21.37;;
12114;SDS011;6121;49.810;6.418;2023-05-10T13:59:31;190.57;;;24.27;;
12114;SDS011;6121;49.810;6.418;2023-05-10T14:01:58;179.48;;;22.75;;
12114;SDS011;6121;49.810;6.418;2023-05-10T14:04:25;182.68;;;23.27;;
12114;SDS011;6121;49.810;6.418;2023-05-10T14:06:50;190.05;;;23.75;;
12114;SDS011;6121;49.810;6.418;2023-05-10T14:09:18;173.15;;;22.05;;
12114;SDS011;6121;49.810;6.418;2023-05-10T14:11:44;202.20;;;25.50;;
12114;SDS011;6121;49.810;6.418;2023-05-10T14:14:11;182.55;;;23.08;;
12114;SDS011;6121;49.810;6.418;2023-05-10T14:16:38;185.93;;;23.42;;
12114;SDS011;6121;49.810;6.418;2023-05-10T14:19:08;160.57;;;20.60;;
12114;SDS011;6121;49.810;6.418;2023-05-10T14:21:34;169.77;;;21.63;;
12114;SDS011;6121;49.810;6.418;2023-05-10T14:24:00;172.77;;;21.97;;
12114;SDS011;6121;49.810;6.418;2023-05-10T14:26:27;163.20;;;20.80;;
12114;SDS011;6121;49.810;6.418;2023-05-10T14:28:53;186.43;;;23.63;;
12114;SDS011;6121;49.810;6.418;2023-05-10T14:31:19;160.57;;;20.60;;
12114;SDS011;6121;49.810;6.418;2023-05-10T14:33:50;193.75;;;24.52;;
12114;SDS011;6121;49.810;6.418;2023-05-10T14:36:17;161.80;;;20.73;;
12114;SDS011;6121;49.810;6.418;2023-05-10T14:38:43;173.90;;;22.05;;
12114;SDS011;6121;49.810;6.418;2023-05-10T14:41:09;159.68;;;20.38;;
12114;SDS011;6121;49.810;6.418;2023-05-10T14:43:39;202.57;;;25.50;;
12114;SDS011;6121;49.810;6.418;2023-05-10T14:46:06;175.10;;;22.30;;
12114;SDS011;6121;49.810;6.418;2023-05-10T14:48:32;189.90;;;23.98;;
12114;SDS011;6121;49.810;6.418;2023-05-10T14:50:58;180.20;;;22.95;;